sensor_id;sensor_type;location;lat;lon;timestamp;pressure;altitude;pressure_sealevel;temperature;humidity
2875;BME280;1445;52.600;13.328;2023-12-14T00:01:39;78079.22;;;-145.99;100.00
2875;BME280;1445;52.600;13.328;2023-12-14T00:04:05;78102.34;;;-145.99;100.00
2875;BME280;1445;52.600;13.328;2023-12-14T00:06:30;78112.84;;;-145.99;100.00
2875;BME280;1445;52.600;13.328;2023-12-14T00:08:56;78100.22;;;-145.99;100.00
2875;BME280;1445;52.600;13.328;2023-12-14T00:11:21;78085.53;;;-145.99;100.00
2875;BME280;1445;52.600;13.328;2023-12-14T00:13:46;78098.13;;;-145.99;100.00
2875;BME280;1445;52.600;13.328;2023-12-14T00:16:11;78096.03;;;-145.99;100.00
2875;BME280;1445;52.600;13.328;2023-12-14T00:18:37;78104.44;;;-145.99;100.00
2875;BME280;1445;52.600;13.328;2023-12-14T00:21:02;78112.84;;;-145.99;100.00
2875;BME280;1445;52.600;13.328;2023-12-14T00:23:28;78117.03;;;-145.99;100.00
2875;BME280;1445;52.600;13.328;2023-12-14T00:25:53;78131.75;;;-145.99;100.00
2875;BME280;1445;52.600;13.328;2023-12-14T00:28:18;78131.75;;;-145.99;100.00
2875;BME280;1445;52.600;13.328;2023-12-14T00:30:44;78133.84;;;-145.99;100.00
2875;BME280;1445;52.600;13.328;2023-12-14T00:33:09;78138.03;;;-145.99;100.00
2875;BME280;1445;52.600;13.328;2023-12-14T00:35:34;78150.66;;;-145.99;100.00
2875;BME280;1445;52.600;13.328;2023-12-14T00:38:00;78142.25;;;-145.99;100.00
2875;BME280;1445;52.600;13.328;2023-12-14T00:40:25;78173.75;;;-145.99;100.00
2875;BME280;1445;52.600;13.328;2023-12-14T00:42:51;78146.44;;;-145.99;100.00
2875;BME280;1445;52.600;13.328;2023-12-14T00:45:16;78165.34;;;-145.99;100.00
2875;BME280;1445;52.600;13.328;2023-12-14T00:47:41;78175.84;;;-145.99;100.00
2875;BME280;1445;52.600;13.328;2023-12-14T00:50:07;78171.66;;;-145.99;100.00
2875;BME280;1445;52.600;13.328;2023-12-14T00:52:32;78169.56;;;-145.99;100.00
2875;BME280;1445;52.600;13.328;2023-12-14T00:54:57;78173.75;;;-145.99;100.00
2875;BME280;1445;52.600;13.328;2023-12-14T00:57:23;78186.34;;;-145.99;100.00
2875;BME280;1445;52.600;13.328;2023-12-14T00:59:48;78198.97;;;-145.99;100.00
2875;BME280;1445;52.600;13.328;2023-12-14T01:02:13;78198.97;;;-145.99;100.00
2875;BME280;1445;52.600;13.328;2023-12-14T01:04:38;78186.34;;;-145.99;100.00
2875;BME280;1445;52.600;13.328;2023-12-14T01:07:04;78198.97;;;-145.99;100.00
2875;BME280;1445;52.600;13.328;2023-12-14T01:09:29;78201.06;;;-145.99;100.00
2875;BME280;1445;52.600;13.328;2023-12-14T01:11:55;78205.25;;;-145.99;100.00
2875;BME280;1445;52.600;13.328;2023-12-14T01:14:20;78203.16;;;-145.99;100.00
2875;BME280;1445;52.600;13.328;2023-12-14T01:16:45;78209.47;;;-145.99;100.00
2875;BME280;1445;52.600;13.328;2023-12-14T01:19:11;78243.06;;;-145.99;100.00
2875;BME280;1445;52.600;13.328;2023-12-14T01:21:36;78236.78;;;-145.99;100.00
2875;BME280;1445;52.600;13.328;2023-12-14T01:24:01;78224.16;;;-145.99;100.00
2875;BME280;1445;52.600;13.328;2023-12-14T01:26:27;78224.16;;;-145.99;100.00
2875;BME280;1445;52.600;13.328;2023-12-14T01:28:52;78240.97;;;-145.99;100.00
2875;BME280;1445;52.600;13.328;2023-12-14T01:31:17;78245.19;;;-145.99;100.00
2875;BME280;1445;52.600;13.328;2023-12-14T01:33:43;78257.78;;;-145.99;100.00
2875;BME280;1445;52.600;13.328;2023-12-14T01:36:08;78253.59;;;-145.99;100.00
2875;BME280;1445;52.600;13.328;2023-12-14T01:38:33;78253.59;;;-145.99;100.00
2875;BME280;1445;52.600;13.328;2023-12-14T01:40:58;78243.06;;;-145.99;100.00
2875;BME280;1445;52.600;13.328;2023-12-14T01:43:24;78266.19;;;-145.99;100.00
2875;BME280;1445;52.600;13.328;2023-12-14T01:45:49;78270.38;;;-145.99;100.00
2875;BME280;1445;52.600;13.328;2023-12-14T01:48:15;78259.88;;;-145.99;100.00
2875;BME280;1445;52.600;13.328;2023-12-14T01:50:40;78261.97;;;-145.99;100.00
2875;BME280;1445;52.600;13.328;2023-12-14T01:53:05;78276.69;;;-145.99;100.00
2875;BME280;1445;52.600;13.328;2023-12-14T01:55:31;78287.19;;;-145.99;100.00
2875;BME280;1445;52.600;13.328;2023-12-14T01:57:56;78274.59;;;-145.99;100.00
2875;BME280;1445;52.600;13.328;2023-12-14T02:00:23;78291.41;;;-145.99;100.00
2875;BME280;1445;52.600;13.328;2023-12-14T02:02:52;78301.91;;;-145.99;100.00
2875;BME280;1445;52.600;13.328;2023-12-14T02:05:18;78299.78;;;-145.99;100.00
2875;BME280;1445;52.600;13.328;2023-12-14T02:07:43;78293.50;;;-145.99;100.00
2875;BME280;1445;52.600;13.328;2023-12-14T02:10:08;78304.00;;;-145.99;100.00
2875;BME280;1445;52.600;13.328;2023-12-14T02:12:34;78304.00;;;-145.99;100.00
2875;BME280;1445;52.600;13.328;2023-12-14T02:14:59;78299.78;;;-145.99;100.00
2875;BME280;1445;52.600;13.328;2023-12-14T02:17:24;78297.69;;;-145.99;100.00
2875;BME280;1445;52.600;13.328;2023-12-14T02:19:49;78306.09;;;-145.99;100.00
2875;BME280;1445;52.600;13.328;2023-12-14T02:22:16;78287.19;;;-145.99;100.00
2875;BME280;1445;52.600;13.328;2023-12-14T02:24:41;78314.50;;;-145.99;100.00
2875;BME280;1445;52.600;13.328;2023-12-14T02:27:06;78320.81;;;-145.99;100.00
2875;BME280;1445;52.600;13.328;2023-12-14T02:29:32;78308.19;;;-145.99;100.00
2875;BME280;1445;52.600;13.328;2023-12-14T02:31:57;78314.50;;;-145.99;100.00
2875;BME280;1445;52.600;13.328;2023-12-14T02:34:22;78322.91;;;-145.99;100.00
2875;BME280;1445;52.600;13.328;2023-12-14T02:36:50;78320.81;;;-145.99;100.00
2875;BME280;1445;52.600;13.328;2023-12-14T02:39:15;78322.91;;;-145.99;100.00
2875;BME280;1445;52.600;13.328;2023-12-14T02:41:40;78318.69;;;-145.99;100.00
2875;BME280;1445;52.600;13.328;2023-12-14T02:44:05;78316.59;;;-145.99;100.00
2875;BME280;1445;52.600;13.328;2023-12-14T02:46:32;78331.31;;;-145.99;100.00
2875;BME280;1445;52.600;13.328;2023-12-14T02:48:57;78308.19;;;-145.99;100.00
2875;BME280;1445;52.600;13.328;2023-12-14T02:51:22;78318.69;;;-145.99;100.00
2875;BME280;1445;52.600;13.328;2023-12-14T02:53:47;78320.81;;;-145.99;100.00
2875;BME280;1445;52.600;13.328;2023-12-14T02:56:13;78308.19;;;-145.99;100.00
2875;BME280;1445;52.600;13.328;2023-12-14T02:58:38;78318.69;;;-145.99;100.00
2875;BME280;1445;52.600;13.328;2023-12-14T03:01:03;78320.81;;;-145.99;100.00
2875;BME280;1445;52.600;13.328;2023-12-14T03:03:29;78339.72;;;-145.99;100.00
2875;BME280;1445;52.600;13.328;2023-12-14T03:05:54;78333.41;;;-145.99;100.00
2875;BME280;1445;52.600;13.328;2023-12-14T03:08:20;78348.13;;;-145.99;100.00
2875;BME280;1445;52.600;13.328;2023-12-14T03:10:45;78341.81;;;-145.99;100.00
2875;BME280;1445;52.600;13.328;2023-12-14T03:13:10;78346.00;;;-145.99;100.00
2875;BME280;1445;52.600;13.328;2023-12-14T03:15:35;78335.50;;;-145.99;100.00
2875;BME280;1445;52.600;13.328;2023-12-14T03:18:01;78352.31;;;-145.99;100.00
2875;BME280;1445;52.600;13.328;2023-12-14T03:20:29;78348.13;;;-145.99;100.00
2875;BME280;1445;52.600;13.328;2023-12-14T03:22:54;78367.03;;;-145.99;100.00
2875;BME280;1445;52.600;13.328;2023-12-14T03:25:19;78362.81;;;-145.99;100.00
2875;BME280;1445;52.600;13.328;2023-12-14T03:27:45;78364.91;;;-145.99;100.00
2875;BME280;1445;52.600;13.328;2023-12-14T03:30:10;78356.53;;;-145.99;100.00
2875;BME280;1445;52.600;13.328;2023-12-14T03:32:36;78379.63;;;-145.99;100.00
2875;BME280;1445;52.600;13.328;2023-12-14T03:35:01;78369.13;;;-145.99;100.00
2875;BME280;1445;52.600;13.328;2023-12-14T03:37:26;78367.03;;;-145.99;100.00
2875;BME280;1445;52.600;13.328;2023-12-14T03:39:52;78362.81;;;-145.99;100.00
2875;BME280;1445;52.600;13.328;2023-12-14T03:42:17;78371.22;;;-145.99;100.00
2875;BME280;1445;52.600;13.328;2023-12-14T03:44:42;78367.03;;;-145.99;100.00
2875;BME280;1445;52.600;13.328;2023-12-14T03:47:07;78379.63;;;-145.99;100.00
2875;BME280;1445;52.600;13.328;2023-12-14T03:49:39;78388.03;;;-145.99;100.00
2875;BME280;1445;52.600;13.328;2023-12-14T03:52:04;78400.63;;;-145.99;100.00
2875;BME280;1445;52.600;13.328;2023-12-14T03:54:29;78392.22;;;-145.99;100.00
2875;BME280;1445;52.600;13.328;2023-12-14T03:56:55;78392.22;;;-145.99;100.00
2875;BME280;1445;52.600;13.328;2023-12-14T03:59:20;78406.94;;;-145.99;100.00
2875;BME280;1445;52.600;13.328;2023-12-14T04:01:45;78409.03;;;-145.99;100.00
2875;BME280;1445;52.600;13.328;2023-12-14T04:04:11;78413.25;;;-145.99;100.00
2875;BME280;1445;52.600;13.328;2023-12-14T04:06:36;78417.44;;;-145.99;100.00
2875;BME280;1445;52.600;13.328;2023-12-14T04:09:01;78411.13;;;-145.99;100.00
2875;BME280;1445;52.600;13.328;2023-12-14T04:11:26;78402.72;;;-145.99;100.00
2875;BME280;1445;52.600;13.328;2023-12-14T04:13:52;78417.44;;;-145.99;100.00
2875;BME280;1445;52.600;13.328;2023-12-14T04:16:21;78417.44;;;-145.99;100.00
2875;BME280;1445;52.600;13.328;2023-12-14T04:18:47;78415.34;;;-145.99;100.00
2875;BME280;1445;52.600;13.328;2023-12-14T04:21:13;78425.84;;;-145.99;100.00
2875;BME280;1445;52.600;13.328;2023-12-14T04:23:38;78421.66;;;-145.99;100.00
2875;BME280;1445;52.600;13.328;2023-12-14T04:26:03;78417.44;;;-145.99;100.00
2875;BME280;1445;52.600;13.328;2023-12-14T04:28:28;78413.25;;;-145.99;100.00
2875;BME280;1445;52.600;13.328;2023-12-14T04:30:54;78404.84;;;-145.99;100.00
2875;BME280;1445;52.600;13.328;2023-12-14T04:33:19;78402.72;;;-145.99;100.00
2875;BME280;1445;52.600;13.328;2023-12-14T04:35:44;78406.94;;;-145.99;100.00
2875;BME280;1445;52.600;13.328;2023-12-14T04:38:09;78415.34;;;-145.99;100.00
2875;BME280;1445;52.600;13.328;2023-12-14T04:40:35;78427.94;;;-145.99;100.00
2875;BME280;1445;52.600;13.328;2023-12-14T04:43:00;78419.53;;;-145.99;100.00
2875;BME280;1445;52.600;13.328;2023-12-14T04:45:25;78419.53;;;-145.99;100.00
2875;BME280;1445;52.600;13.328;2023-12-14T04:47:50;78409.03;;;-145.99;100.00
2875;BME280;1445;52.600;13.328;2023-12-14T04:50:16;78411.13;;;-145.99;100.00
2875;BME280;1445;52.600;13.328;2023-12-14T04:52:41;78438.44;;;-145.99;100.00
2875;BME280;1445;52.600;13.328;2023-12-14T04:55:07;78438.44;;;-145.99;100.00
2875;BME280;1445;52.600;13.328;2023-12-14T04:57:33;78430.03;;;-145.99;100.00
2875;BME280;1445;52.600;13.328;2023-12-14T04:59:58;78457.34;;;-145.99;100.00
2875;BME280;1445;52.600;13.328;2023-12-14T05:02:23;78453.16;;;-145.99;100.00
2875;BME280;1445;52.600;13.328;2023-12-14T05:04:49;78448.94;;;-145.99;100.00
2875;BME280;1445;52.600;13.328;2023-12-14T05:07:14;78444.75;;;-145.99;100.00
2875;BME280;1445;52.600;13.328;2023-12-14T05:09:40;78442.66;;;-145.99;100.00
2875;BME280;1445;52.600;13.328;2023-12-14T05:12:05;78465.75;;;-145.99;100.00
2875;BME280;1445;52.600;13.328;2023-12-14T05:14:30;78465.75;;;-145.99;100.00
2875;BME280;1445;52.600;13.328;2023-12-14T05:16:56;78461.56;;;-145.99;100.00
2875;BME280;1445;52.600;13.328;2023-12-14T05:19:21;78463.66;;;-145.99;100.00
2875;BME280;1445;52.600;13.328;2023-12-14T05:21:46;78465.75;;;-145.99;100.00
2875;BME280;1445;52.600;13.328;2023-12-14T05:24:12;78469.97;;;-145.99;100.00
2875;BME280;1445;52.600;13.328;2023-12-14T05:26:37;78476.25;;;-145.99;100.00
2875;BME280;1445;52.600;13.328;2023-12-14T05:29:02;78486.78;;;-145.99;100.00
2875;BME280;1445;52.600;13.328;2023-12-14T05:31:28;78482.56;;;-145.99;100.00
2875;BME280;1445;52.600;13.328;2023-12-14T05:33:53;78490.97;;;-145.99;100.00
2875;BME280;1445;52.600;13.328;2023-12-14T05:36:18;78476.25;;;-145.99;100.00
2875;BME280;1445;52.600;13.328;2023-12-14T05:38:44;78476.25;;;-145.99;100.00
2875;BME280;1445;52.600;13.328;2023-12-14T05:41:09;78488.88;;;-145.99;100.00
2875;BME280;1445;52.600;13.328;2023-12-14T05:43:35;78488.88;;;-145.99;100.00
2875;BME280;1445;52.600;13.328;2023-12-14T05:46:01;78493.06;;;-145.99;100.00
2875;BME280;1445;52.600;13.328;2023-12-14T05:48:26;78497.28;;;-145.99;100.00
2875;BME280;1445;52.600;13.328;2023-12-14T05:50:53;78493.06;;;-145.99;100.00
2875;BME280;1445;52.600;13.328;2023-12-14T05:53:18;78505.69;;;-145.99;100.00
2875;BME280;1445;52.600;13.328;2023-12-14T05:55:43;78501.47;;;-145.99;100.00
2875;BME280;1445;52.600;13.328;2023-12-14T05:58:09;78509.88;;;-145.99;100.00
2875;BME280;1445;52.600;13.328;2023-12-14T06:00:35;78495.16;;;-145.99;100.00
2875;BME280;1445;52.600;13.328;2023-12-14T06:03:01;78501.47;;;-145.99;100.00
2875;BME280;1445;52.600;13.328;2023-12-14T06:05:26;78516.19;;;-145.99;100.00
2875;BME280;1445;52.600;13.328;2023-12-14T06:07:51;78514.06;;;-145.99;100.00
2875;BME280;1445;52.600;13.328;2023-12-14T06:10:17;78520.38;;;-145.99;100.00
2875;BME280;1445;52.600;13.328;2023-12-14T06:12:42;78528.78;;;-145.99;100.00
2875;BME280;1445;52.600;13.328;2023-12-14T06:15:07;78518.28;;;-145.99;100.00
2875;BME280;1445;52.600;13.328;2023-12-14T06:17:32;78518.28;;;-145.99;100.00
2875;BME280;1445;52.600;13.328;2023-12-14T06:19:59;78522.47;;;-145.99;100.00
2875;BME280;1445;52.600;13.328;2023-12-14T06:22:24;78526.69;;;-145.99;100.00
2875;BME280;1445;52.600;13.328;2023-12-14T06:24:49;78533.00;;;-145.99;100.00
2875;BME280;1445;52.600;13.328;2023-12-14T06:27:14;78541.41;;;-145.99;100.00
2875;BME280;1445;52.600;13.328;2023-12-14T06:29:41;78526.69;;;-145.99;100.00
2875;BME280;1445;52.600;13.328;2023-12-14T06:32:06;78543.50;;;-145.99;100.00
2875;BME280;1445;52.600;13.328;2023-12-14T06:34:31;78539.28;;;-145.99;100.00
2875;BME280;1445;52.600;13.328;2023-12-14T06:36:57;78549.78;;;-145.99;100.00
2875;BME280;1445;52.600;13.328;2023-12-14T06:39:24;78539.28;;;-145.99;100.00
2875;BME280;1445;52.600;13.328;2023-12-14T06:41:52;78543.50;;;-145.99;100.00
2875;BME280;1445;52.600;13.328;2023-12-14T06:44:17;78543.50;;;-145.99;100.00
2875;BME280;1445;52.600;13.328;2023-12-14T06:46:42;78543.50;;;-145.99;100.00
2875;BME280;1445;52.600;13.328;2023-12-14T06:49:07;78551.91;;;-145.99;100.00
2875;BME280;1445;52.600;13.328;2023-12-14T06:51:33;78560.31;;;-145.99;100.00
2875;BME280;1445;52.600;13.328;2023-12-14T06:53:58;78572.91;;;-145.99;100.00
2875;BME280;1445;52.600;13.328;2023-12-14T06:56:23;78570.81;;;-145.99;100.00
2875;BME280;1445;52.600;13.328;2023-12-14T06:58:49;78579.22;;;-145.99;100.00
2875;BME280;1445;52.600;13.328;2023-12-14T07:01:15;78575.00;;;-145.99;100.00
2875;BME280;1445;52.600;13.328;2023-12-14T07:03:40;78564.50;;;-145.99;100.00
2875;BME280;1445;52.600;13.328;2023-12-14T07:06:07;78562.41;;;-145.99;100.00
2875;BME280;1445;52.600;13.328;2023-12-14T07:08:32;78581.31;;;-145.99;100.00
2875;BME280;1445;52.600;13.328;2023-12-14T07:10:57;78585.50;;;-145.99;100.00
2875;BME280;1445;52.600;13.328;2023-12-14T07:13:22;78600.22;;;-145.99;100.00
2875;BME280;1445;52.600;13.328;2023-12-14T07:15:48;78602.31;;;-145.99;100.00
2875;BME280;1445;52.600;13.328;2023-12-14T07:18:13;78610.72;;;-145.99;100.00
2875;BME280;1445;52.600;13.328;2023-12-14T07:20:38;78619.13;;;-145.99;100.00
2875;BME280;1445;52.600;13.328;2023-12-14T07:23:04;78625.44;;;-145.99;100.00
2875;BME280;1445;52.600;13.328;2023-12-14T07:25:29;78621.22;;;-145.99;100.00
2875;BME280;1445;52.600;13.328;2023-12-14T07:27:54;78617.03;;;-145.99;100.00
2875;BME280;1445;52.600;13.328;2023-12-14T07:30:20;78608.63;;;-145.99;100.00
2875;BME280;1445;52.600;13.328;2023-12-14T07:32:45;78598.13;;;-145.99;100.00
2875;BME280;1445;52.600;13.328;2023-12-14T07:35:10;78606.53;;;-145.99;100.00
2875;BME280;1445;52.600;13.328;2023-12-14T07:37:36;78621.22;;;-145.99;100.00
2875;BME280;1445;52.600;13.328;2023-12-14T07:40:01;78619.13;;;-145.99;100.00
2875;BME280;1445;52.600;13.328;2023-12-14T07:42:28;78619.13;;;-145.99;100.00
2875;BME280;1445;52.600;13.328;2023-12-14T07:44:53;78623.31;;;-145.99;100.00
2875;BME280;1445;52.600;13.328;2023-12-14T07:47:19;78612.81;;;-145.99;100.00
2875;BME280;1445;52.600;13.328;2023-12-14T07:49:44;78621.22;;;-145.99;100.00
2875;BME280;1445;52.600;13.328;2023-12-14T07:52:10;78625.44;;;-145.99;100.00
2875;BME280;1445;52.600;13.328;2023-12-14T07:54:36;78627.53;;;-145.99;100.00
2875;BME280;1445;52.600;13.328;2023-12-14T07:57:01;78635.94;;;-145.99;100.00
2875;BME280;1445;52.600;13.328;2023-12-14T07:59:27;78629.63;;;-145.99;100.00
2875;BME280;1445;52.600;13.328;2023-12-14T08:01:54;78631.72;;;-145.99;100.00
2875;BME280;1445;52.600;13.328;2023-12-14T08:04:20;78642.22;;;-145.99;100.00
2875;BME280;1445;52.600;13.328;2023-12-14T08:06:45;78640.13;;;-145.99;100.00
2875;BME280;1445;52.600;13.328;2023-12-14T08:09:10;78635.94;;;-145.99;100.00
2875;BME280;1445;52.600;13.328;2023-12-14T08:11:35;78623.31;;;-145.99;100.00
2875;BME280;1445;52.600;13.328;2023-12-14T08:14:01;78644.34;;;-145.99;100.00
2875;BME280;1445;52.600;13.328;2023-12-14T08:16:26;78650.63;;;-145.99;100.00
2875;BME280;1445;52.600;13.328;2023-12-14T08:18:52;78656.94;;;-145.99;100.00
2875;BME280;1445;52.600;13.328;2023-12-14T08:21:17;78652.75;;;-145.99;100.00
2875;BME280;1445;52.600;13.328;2023-12-14T08:23:43;78644.34;;;-145.99;100.00
2875;BME280;1445;52.600;13.328;2023-12-14T08:26:08;78652.75;;;-145.99;100.00
2875;BME280;1445;52.600;13.328;2023-12-14T08:28:35;78652.75;;;-145.99;100.00
2875;BME280;1445;52.600;13.328;2023-12-14T08:31:00;78677.94;;;-145.99;100.00
2875;BME280;1445;52.600;13.328;2023-12-14T08:33:28;78671.66;;;-145.99;100.00
2875;BME280;1445;52.600;13.328;2023-12-14T08:35:53;78661.16;;;-145.99;100.00
2875;BME280;1445;52.600;13.328;2023-12-14T08:38:18;78667.44;;;-145.99;100.00
2875;BME280;1445;52.600;13.328;2023-12-14T08:40:43;78677.94;;;-145.99;100.00
2875;BME280;1445;52.600;13.328;2023-12-14T08:43:09;78684.25;;;-145.99;100.00
2875;BME280;1445;52.600;13.328;2023-12-14T08:45:34;78696.88;;;-145.99;100.00
2875;BME280;1445;52.600;13.328;2023-12-14T08:47:59;78682.16;;;-145.99;100.00
2875;BME280;1445;52.600;13.328;2023-12-14T08:50:24;78665.34;;;-145.99;100.00
2875;BME280;1445;52.600;13.328;2023-12-14T08:52:51;78673.75;;;-145.99;100.00
2875;BME280;1445;52.600;13.328;2023-12-14T08:55:17;78675.84;;;-145.99;100.00
2875;BME280;1445;52.600;13.328;2023-12-14T08:57:42;78680.06;;;-145.99;100.00
2875;BME280;1445;52.600;13.328;2023-12-14T09:00:08;78682.16;;;-145.99;100.00
2875;BME280;1445;52.600;13.328;2023-12-14T09:02:34;78688.47;;;-145.99;100.00
2875;BME280;1445;52.600;13.328;2023-12-14T09:05:00;78688.47;;;-145.99;100.00
2875;BME280;1445;52.600;13.328;2023-12-14T09:07:25;78682.16;;;-145.99;100.00
2875;BME280;1445;52.600;13.328;2023-12-14T09:09:50;78715.78;;;-145.99;100.00
2875;BME280;1445;52.600;13.328;2023-12-14T09:12:16;78696.88;;;-145.99;100.00
2875;BME280;1445;52.600;13.328;2023-12-14T09:14:41;78690.56;;;-145.99;100.00
2875;BME280;1445;52.600;13.328;2023-12-14T09:17:06;78686.34;;;-145.99;100.00
2875;BME280;1445;52.600;13.328;2023-12-14T09:19:32;78707.38;;;-145.99;100.00
2875;BME280;1445;52.600;13.328;2023-12-14T09:21:57;78709.47;;;-145.99;100.00
2875;BME280;1445;52.600;13.328;2023-12-14T09:24:23;78709.47;;;-145.99;100.00
2875;BME280;1445;52.600;13.328;2023-12-14T09:26:48;78715.78;;;-145.99;100.00
2875;BME280;1445;52.600;13.328;2023-12-14T09:29:13;78709.47;;;-145.99;100.00
2875;BME280;1445;52.600;13.328;2023-12-14T09:31:43;78722.06;;;-145.99;100.00
2875;BME280;1445;52.600;13.328;2023-12-14T09:34:09;78724.19;;;-145.99;100.00
2875;BME280;1445;52.600;13.328;2023-12-14T09:36:35;78715.78;;;-145.99;100.00
2875;BME280;1445;52.600;13.328;2023-12-14T09:39:00;78730.47;;;-145.99;100.00
2875;BME280;1445;52.600;13.328;2023-12-14T09:41:25;78732.56;;;-145.99;100.00
2875;BME280;1445;52.600;13.328;2023-12-14T09:43:51;78732.56;;;-145.99;100.00
2875;BME280;1445;52.600;13.328;2023-12-14T09:46:17;78715.78;;;-145.99;100.00
2875;BME280;1445;52.600;13.328;2023-12-14T09:48:42;78705.28;;;-145.99;100.00
2875;BME280;1445;52.600;13.328;2023-12-14T09:51:08;78686.34;;;-145.99;100.00
2875;BME280;1445;52.600;13.328;2023-12-14T09:53:34;78686.34;;;-145.99;100.00
2875;BME280;1445;52.600;13.328;2023-12-14T09:56:01;78680.06;;;-145.99;100.00
2875;BME280;1445;52.600;13.328;2023-12-14T09:58:26;78696.88;;;-145.99;100.00
2875;BME280;1445;52.600;13.328;2023-12-14T10:00:52;78682.16;;;-145.99;100.00
2875;BME280;1445;52.600;13.328;2023-12-14T10:03:21;78705.28;;;-145.99;100.00
2875;BME280;1445;52.600;13.328;2023-12-14T10:05:47;78701.06;;;-145.99;100.00
2875;BME280;1445;52.600;13.328;2023-12-14T10:08:14;78671.66;;;-145.99;100.00
2875;BME280;1445;52.600;13.328;2023-12-14T10:10:39;78675.84;;;-145.99;100.00
2875;BME280;1445;52.600;13.328;2023-12-14T10:13:04;78677.94;;;-145.99;100.00
2875;BME280;1445;52.600;13.328;2023-12-14T10:15:29;78682.16;;;-145.99;100.00
2875;BME280;1445;52.600;13.328;2023-12-14T10:18:04;78701.06;;;-145.99;100.00
2875;BME280;1445;52.600;13.328;2023-12-14T10:20:31;78682.16;;;-145.99;100.00
2875;BME280;1445;52.600;13.328;2023-12-14T10:22:56;78684.25;;;-145.99;100.00
2875;BME280;1445;52.600;13.328;2023-12-14T10:25:22;78694.75;;;-145.99;100.00
2875;BME280;1445;52.600;13.328;2023-12-14T10:27:47;78688.47;;;-145.99;100.00
2875;BME280;1445;52.600;13.328;2023-12-14T10:30:14;78717.88;;;-145.99;100.00
2875;BME280;1445;52.600;13.328;2023-12-14T10:32:40;78698.97;;;-145.99;100.00
2875;BME280;1445;52.600;13.328;2023-12-14T10:35:06;78719.97;;;-145.99;100.00
2875;BME280;1445;52.600;13.328;2023-12-14T10:37:32;78707.38;;;-145.99;100.00
2875;BME280;1445;52.600;13.328;2023-12-14T10:40:00;78698.97;;;-145.99;100.00
2875;BME280;1445;52.600;13.328;2023-12-14T10:42:27;78696.88;;;-145.99;100.00
2875;BME280;1445;52.600;13.328;2023-12-14T10:44:53;78715.78;;;-145.99;100.00
2875;BME280;1445;52.600;13.328;2023-12-14T10:47:19;78701.06;;;-145.99;100.00
2875;BME280;1445;52.600;13.328;2023-12-14T10:49:50;78698.97;;;-145.99;100.00
2875;BME280;1445;52.600;13.328;2023-12-14T10:52:15;78677.94;;;-145.99;100.00
2875;BME280;1445;52.600;13.328;2023-12-14T10:54:42;78682.16;;;-145.99;100.00
2875;BME280;1445;52.600;13.328;2023-12-14T10:57:08;78698.97;;;-145.99;100.00
2875;BME280;1445;52.600;13.328;2023-12-14T10:59:34;78667.44;;;-145.99;100.00
2875;BME280;1445;52.600;13.328;2023-12-14T11:01:59;78671.66;;;-145.99;100.00
2875;BME280;1445;52.600;13.328;2023-12-14T11:04:32;78694.75;;;-145.99;100.00
2875;BME280;1445;52.600;13.328;2023-12-14T11:07:17;78682.16;;;-145.99;100.00
2875;BME280;1445;52.600;13.328;2023-12-14T11:09:44;78673.75;;;-145.99;100.00
2875;BME280;1445;52.600;13.328;2023-12-14T11:12:09;78654.84;;;-145.99;100.00
2875;BME280;1445;52.600;13.328;2023-12-14T11:14:36;78648.53;;;-145.99;100.00
2875;BME280;1445;52.600;13.328;2023-12-14T11:17:05;78671.66;;;-145.99;100.00
2875;BME280;1445;52.600;13.328;2023-12-14T11:19:31;78661.16;;;-145.99;100.00
2875;BME280;1445;52.600;13.328;2023-12-14T11:22:09;78661.16;;;-145.99;100.00
2875;BME280;1445;52.600;13.328;2023-12-14T11:24:35;78654.84;;;-145.99;100.00
2875;BME280;1445;52.600;13.328;2023-12-14T11:27:04;78629.63;;;-145.99;100.00
2875;BME280;1445;52.600;13.328;2023-12-14T11:29:29;78621.22;;;-145.99;100.00
2875;BME280;1445;52.600;13.328;2023-12-14T11:31:55;78669.56;;;-145.99;100.00
2875;BME280;1445;52.600;13.328;2023-12-14T11:34:20;78675.84;;;-145.99;100.00
2875;BME280;1445;52.600;13.328;2023-12-14T11:36:49;78659.03;;;-145.99;100.00
2875;BME280;1445;52.600;13.328;2023-12-14T11:39:14;78652.75;;;-145.99;100.00
2875;BME280;1445;52.600;13.328;2023-12-14T11:41:39;78665.34;;;-145.99;100.00
2875;BME280;1445;52.600;13.328;2023-12-14T11:44:05;78682.16;;;-145.99;100.00
2875;BME280;1445;52.600;13.328;2023-12-14T11:46:30;78682.16;;;-145.99;100.00
2875;BME280;1445;52.600;13.328;2023-12-14T11:48:57;78663.25;;;-145.99;100.00
2875;BME280;1445;52.600;13.328;2023-12-14T11:51:22;78661.16;;;-145.99;100.00
2875;BME280;1445;52.600;13.328;2023-12-14T11:53:47;78667.44;;;-145.99;100.00
2875;BME280;1445;52.600;13.328;2023-12-14T11:56:19;78680.06;;;-145.99;100.00
2875;BME280;1445;52.600;13.328;2023-12-14T11:58:44;78698.97;;;-145.99;100.00
2875;BME280;1445;52.600;13.328;2023-12-14T12:01:19;78675.84;;;-145.99;100.00
2875;BME280;1445;52.600;13.328;2023-12-14T12:03:46;78682.16;;;-145.99;100.00
2875;BME280;1445;52.600;13.328;2023-12-14T12:06:21;78694.75;;;-145.99;100.00
2875;BME280;1445;52.600;13.328;2023-12-14T12:08:50;78690.56;;;-145.99;100.00
2875;BME280;1445;52.600;13.328;2023-12-14T12:11:19;78703.16;;;-145.99;100.00
2875;BME280;1445;52.600;13.328;2023-12-14T12:13:49;78696.88;;;-145.99;100.00
2875;BME280;1445;52.600;13.328;2023-12-14T12:16:14;78709.47;;;-145.99;100.00
2875;BME280;1445;52.600;13.328;2023-12-14T12:18:40;78705.28;;;-145.99;100.00
2875;BME280;1445;52.600;13.328;2023-12-14T12:21:06;78719.97;;;-145.99;100.00
2875;BME280;1445;52.600;13.328;2023-12-14T12:23:33;78715.78;;;-145.99;100.00
2875;BME280;1445;52.600;13.328;2023-12-14T12:25:58;78707.38;;;-145.99;100.00
2875;BME280;1445;52.600;13.328;2023-12-14T12:28:23;78730.47;;;-145.99;100.00
2875;BME280;1445;52.600;13.328;2023-12-14T12:30:49;78726.28;;;-145.99;100.00
2875;BME280;1445;52.600;13.328;2023-12-14T12:33:14;78730.47;;;-145.99;100.00